Time;durP1;ratioP1;P1;durP2;ratioP2;P2;SDS_P1;SDS_P2;PMS_P1;PMS_P2;Temp;Humidity;BMP_temperature;BMP_pressure;BME280_temperature;BME280_humidity;BME280_pressure;Samples;Min_cycle;Max_cycle;Signal;HPM_P1;HPM_P2
2023/03/23 00:00:08;;;;;;;;;2.00;2.00;;;;;13.55;70.40;100256.09;5037620;28;46616;-70
2023/03/23 00:02:35;;;;;;;;;2.00;2.00;;;;;13.58;70.49;100270.03;5042289;28;45383;-66
2023/03/23 00:05:03;;;;;;;;;2.00;2.00;;;;;13.43;70.95;100246.66;5047379;28;45719;-69
2023/03/23 00:07:29;;;;;;;;;2.00;2.00;;;;;13.58;70.90;100262.16;5035529;28;45412;-69
2023/03/23 00:09:55;;;;;;;;;3.00;2.00;;;;;13.61;70.43;100265.63;5053187;28;45417;-68
2023/03/23 00:12:33;;;;;;;;;1.33;1.33;;;;;13.54;70.36;100249.94;5052884;28;45356;-69
2023/03/23 00:15:03;;;;;;;;;3.00;1.67;;;;;13.58;70.00;100262.16;5038023;28;45691;-66
2023/03/23 00:17:30;;;;;;;;;3.67;2.00;;;;;13.54;69.93;100247.31;5037936;28;45559;-68
2023/03/23 00:19:55;;;;;;;;;1.33;1.00;;;;;13.54;69.96;100243.81;5055936;28;46130;-68
2023/03/23 00:22:24;;;;;;;;;3.00;2.00;;;;;13.57;69.87;100235.84;5055605;28;45340;-67
2023/03/23 00:24:51;;;;;;;;;2.00;2.00;;;;;13.65;69.24;100233.97;5055773;28;45513;-65
2023/03/23 00:27:17;;;;;;;;;1.00;1.00;;;;;13.41;69.18;100202.84;5055317;28;45404;-68
2023/03/23 00:29:44;;;;;;;;;1.33;1.33;;;;;13.51;69.27;100236.84;5057717;28;45490;-70
2023/03/23 00:32:12;;;;;;;;;2.00;2.00;;;;;13.57;69.03;100238.47;5055577;28;45430;-69
2023/03/23 00:34:40;;;;;;;;;2.00;2.00;;;;;13.58;69.25;100241.09;5055631;28;45854;-66
2023/03/23 00:37:08;;;;;;;;;1.33;1.33;;;;;13.48;68.93;100242.19;5054856;28;45531;-65
2023/03/23 00:39:36;;;;;;;;;1.00;1.00;;;;;13.55;68.90;100246.44;5036460;28;47052;-66
2023/03/23 00:42:03;;;;;;;;;3.67;2.00;;;;;13.54;69.30;100241.19;5034578;28;45531;-66
2023/03/23 00:44:34;;;;;;;;;2.00;2.00;;;;;13.56;68.80;100249.91;5056362;28;45505;-68
2023/03/23 00:47:01;;;;;;;;;2.00;2.00;;;;;13.49;68.92;100229.88;5043355;28;45218;-69
2023/03/23 00:49:27;;;;;;;;;2.33;1.00;;;;;13.54;68.67;100236.78;5031057;28;45602;-68
2023/03/23 00:51:55;;;;;;;;;2.00;2.00;;;;;13.49;69.15;100214.94;5041343;28;45521;-70
2023/03/23 00:54:23;;;;;;;;;2.00;2.00;;;;;13.53;68.55;100210.53;5050656;28;45443;-68
2023/03/23 00:56:48;;;;;;;;;1.33;1.33;;;;;13.53;68.78;100218.41;5021661;28;45626;-66
2023/03/23 00:59:14;;;;;;;;;2.00;1.67;;;;;13.57;68.50;100235.84;5038912;28;46218;-67
2023/03/23 01:01:39;;;;;;;;;3.00;2.00;;;;;13.45;68.58;100212.41;5038880;28;45454;-68
2023/03/23 01:04:05;;;;;;;;;1.00;1.00;;;;;13.56;68.66;100224.47;5035330;28;45906;-70
2023/03/23 01:06:35;;;;;;;;;2.00;1.00;;;;;13.57;68.96;100227.97;5035113;28;45715;-68
2023/03/23 01:09:02;;;;;;;;;2.00;2.00;;;;;13.49;69.05;100216.72;5035613;28;46134;-69
2023/03/23 01:11:27;;;;;;;;;2.00;2.00;;;;;13.57;68.77;100215.69;5036696;28;45658;-68
2023/03/23 01:13:53;;;;;;;;;2.00;1.67;;;;;13.58;69.53;100227.09;5034204;28;45531;-66
2023/03/23 01:16:19;;;;;;;;;4.00;1.00;;;;;13.62;69.24;100238.41;5035110;28;45677;-66
2023/03/23 01:18:44;;;;;;;;;2.33;2.00;;;;;13.52;69.22;100225.41;5037991;28;45459;-67
2023/03/23 01:21:15;;;;;;;;;2.00;1.00;;;;;13.60;69.13;100246.34;5034644;28;45582;-67
2023/03/23 01:23:41;;;;;;;;;3.67;2.67;;;;;13.57;69.67;100242.00;5040818;28;45576;-66
2023/03/23 01:26:12;;;;;;;;;4.00;2.33;;;;;13.49;69.77;100203.56;5037022;28;45446;-70
2023/03/23 01:28:40;;;;;;;;;2.00;1.67;;;;;13.45;69.93;100213.28;5034269;28;46337;-67
2023/03/23 01:31:11;;;;;;;;;2.00;2.00;;;;;13.43;69.84;100237.88;5035577;28;45683;-69
2023/03/23 01:33:38;;;;;;;;;2.00;2.00;;;;;13.49;70.49;100230.75;5034267;28;45432;-67
2023/03/23 01:36:06;;;;;;;;;1.00;1.00;;;;;13.57;70.07;100235.84;5027780;28;45594;-67
2023/03/23 01:38:34;;;;;;;;;2.00;1.00;;;;;13.57;69.82;100222.69;5034176;28;46289;-70
2023/03/23 01:41:00;;;;;;;;;2.00;2.00;;;;;13.49;70.00;100217.59;5032012;28;45554;-68
2023/03/23 01:43:25;;;;;;;;;3.00;3.00;;;;;13.44;69.88;100200.16;5037599;28;45526;-65
2023/03/23 01:45:51;;;;;;;;;1.00;1.00;;;;;13.45;70.12;100205.38;5054788;28;45481;-64
2023/03/23 01:48:31;;;;;;;;;3.00;3.00;;;;;13.38;70.06;100203.75;5054601;28;46636;-65
2023/03/23 01:51:06;;;;;;;;;3.00;3.00;;;;;13.40;70.19;100173.03;5041100;28;45462;-67
2023/03/23 01:53:50;;;;;;;;;4.00;2.00;;;;;13.35;69.80;100186.25;5054470;28;45522;-66
2023/03/23 01:56:20;;;;;;;;;3.67;1.00;;;;;13.43;69.87;100190.53;5039697;28;45589;-69
2023/03/23 01:58:51;;;;;;;;;2.00;1.67;;;;;13.44;69.81;100158.94;5058028;28;45510;-70
2023/03/23 02:01:17;;;;;;;;;1.67;1.00;;;;;13.47;69.87;100172.03;5055071;28;45498;-66
2023/03/23 02:03:48;;;;;;;;;2.33;1.00;;;;;13.34;69.96;100155.63;5054594;28;45227;-68
2023/03/23 02:06:14;;;;;;;;;3.00;3.00;;;;;13.43;69.54;100153.69;5035368;28;45526;-66
2023/03/23 02:08:43;;;;;;;;;1.67;1.67;;;;;13.44;69.99;100148.41;5039392;28;47740;-68
2023/03/23 02:11:22;;;;;;;;;2.67;2.00;;;;;13.53;69.57;100165.78;5056954;28;45552;-69
2023/03/23 02:13:49;;;;;;;;;3.00;3.00;;;;;13.49;69.62;100169.38;5058689;28;45456;-68
2023/03/23 02:16:18;;;;;;;;;5.67;1.67;;;;;13.48;69.93;100162.38;5055912;28;45748;-68
2023/03/23 02:18:58;;;;;;;;;2.67;2.00;;;;;13.42;69.75;100179.13;5052812;28;47693;-68
2023/03/23 02:21:45;;;;;;;;;1.67;1.00;;;;;13.44;70.32;100197.53;5053392;28;45442;-69
2023/03/23 02:24:26;;;;;;;;;3.00;3.00;;;;;13.48;70.18;100200.09;5047636;28;45471;-69
2023/03/23 02:26:58;;;;;;;;;3.00;2.00;;;;;13.32;70.12;100203.88;5045333;28;45717;-68
2023/03/23 02:29:56;;;;;;;;;2.00;1.50;;;;;13.34;70.83;100212.63;5053639;28;45505;-68
2023/03/23 02:32:40;;;;;;;;;2.00;2.00;;;;;13.41;70.05;100200.22;5017309;28;45592;-66
2023/03/23 02:35:12;;;;;;;;;1.33;1.33;;;;;13.39;70.13;100215.16;5045967;28;45484;-66
2023/03/23 02:37:56;;;;;;;;;1.00;1.00;;;;;13.38;69.72;100219.53;5048016;28;45490;-67
2023/03/23 02:40:30;;;;;;;;;2.00;1.00;;;;;13.29;70.21;100189.03;5053770;28;46668;-68
2023/03/23 02:42:58;;;;;;;;;2.00;2.00;;;;;13.40;69.90;100219.50;5055806;28;45567;-69
2023/03/23 02:45:27;;;;;;;;;1.67;1.67;;;;;13.38;69.77;100218.69;5025441;28;45539;-68
2023/03/23 02:47:55;;;;;;;;;3.00;2.00;;;;;13.41;69.73;100226.53;5053500;28;45553;-68
2023/03/23 02:50:26;;;;;;;;;2.00;2.00;;;;;13.38;69.88;100205.53;5056398;28;45610;-68
2023/03/23 02:52:55;;;;;;;;;3.00;1.00;;;;;13.39;69.62;100218.66;5051654;28;45477;-67
2023/03/23 02:55:24;;;;;;;;;1.00;1.00;;;;;13.38;69.90;100209.00;5034996;28;45653;-67
2023/03/23 02:57:52;;;;;;;;;2.00;2.00;;;;;13.40;69.49;100201.97;5055604;28;45503;-66
2023/03/23 03:00:18;;;;;;;;;3.00;1.00;;;;;13.45;69.31;100199.25;5051955;28;45848;-66
2023/03/23 03:02:56;;;;;;;;;2.67;2.67;;;;;13.47;69.61;100203.59;5043957;28;45426;-65
2023/03/23 03:05:43;;;;;;;;;3.00;2.00;;;;;13.45;69.50;100213.28;5034502;28;45557;-66
2023/03/23 03:08:23;;;;;;;;;1.33;1.33;;;;;13.38;69.00;100181.84;5055245;28;45554;-67
2023/03/23 03:10:51;;;;;;;;;2.00;2.00;;;;;13.38;69.96;100198.50;5054548;28;45399;-66
2023/03/23 03:13:25;;;;;;;;;4.00;1.00;;;;;13.40;69.57;100188.81;5053106;28;45443;-66
2023/03/23 03:16:07;;;;;;;;;1.00;1.00;;;;;13.40;69.73;100188.81;5034775;28;45496;-68
2023/03/23 03:18:44;;;;;;;;;2.00;2.00;;;;;13.36;69.68;100179.25;5054927;28;45622;-67
2023/03/23 03:21:14;;;;;;;;;1.00;1.00;;;;;13.41;69.80;100187.06;5054501;28;45789;-66
2023/03/23 03:23:42;;;;;;;;;2.00;1.00;;;;;13.28;69.78;100157.47;5034917;28;45991;-67
2023/03/23 03:26:12;;;;;;;;;1.67;1.67;;;;;13.39;69.65;100184.47;5053599;28;45839;-69
2023/03/23 03:28:39;;;;;;;;;3.33;2.00;;;;;13.28;69.92;100155.72;5057774;28;45446;-68
2023/03/23 03:31:07;;;;;;;;;3.33;1.67;;;;;13.46;69.70;100185.22;5054969;28;46097;-67
2023/03/23 03:33:33;;;;;;;;;2.00;2.00;;;;;13.51;69.58;100199.16;5052881;28;45453;-67
2023/03/23 03:36:08;;;;;;;;;2.00;2.00;;;;;13.40;69.97;100175.66;5042068;28;45510;-70
2023/03/23 03:38:44;;;;;;;;;4.00;1.67;;;;;13.47;69.95;100185.16;5035140;28;45570;-64
2023/03/23 03:41:10;;;;;;;;;2.00;1.00;;;;;13.50;69.65;100187.78;5048691;28;45584;-65
2023/03/23 03:43:36;;;;;;;;;3.00;1.00;;;;;13.44;69.64;100172.09;5056814;28;45415;-64
2023/03/23 03:46:02;;;;;;;;;2.00;1.00;;;;;13.53;69.41;100185.06;5055770;28;45477;-65
2023/03/23 03:48:27;;;;;;;;;1.00;1.00;;;;;13.60;69.07;100190.22;5056495;28;45395;-69
2023/03/23 03:50:56;;;;;;;;;1.67;1.00;;;;;13.62;69.57;100191.03;5055955;28;45505;-67
2023/03/23 03:53:25;;;;;;;;;2.00;1.00;;;;;13.60;68.88;100187.59;5042247;28;45608;-68
2023/03/23 03:55:55;;;;;;;;;2.00;2.00;;;;;13.58;68.93;100163.94;5058369;28;45514;-65
2023/03/23 03:58:22;;;;;;;;;1.00;1.00;;;;;13.65;69.52;100194.50;5055818;28;45331;-67
2023/03/23 04:00:48;;;;;;;;;1.33;1.33;;;;;13.62;69.51;100191.03;5059050;28;46259;-65
2023/03/23 04:03:16;;;;;;;;;3.33;1.67;;;;;13.61;69.64;100192.81;5038724;28;45888;-67
2023/03/23 04:05:45;;;;;;;;;2.00;2.00;;;;;13.58;69.74;100190.25;5021257;28;45532;-66
2023/03/23 04:08:13;;;;;;;;;2.33;2.00;;;;;13.53;69.76;100190.34;5038772;28;45399;-66
2023/03/23 04:10:40;;;;;;;;;2.00;2.00;;;;;13.60;69.74;100196.34;5039989;28;45486;-66
2023/03/23 04:13:06;;;;;;;;;3.00;3.00;;;;;13.46;70.48;100178.19;5039315;28;45491;-67
2023/03/23 04:15:31;;;;;;;;;4.00;2.00;;;;;13.51;70.06;100188.63;5056147;28;45446;-65
2023/03/23 04:17:57;;;;;;;;;3.00;2.00;;;;;13.38;70.24;100180.06;5056732;28;45489;-69
2023/03/23 04:20:24;;;;;;;;;2.00;2.00;;;;;13.51;70.38;100217.56;5055802;28;46100;-67
2023/03/23 04:22:51;;;;;;;;;1.33;1.33;;;;;13.43;70.14;100201.03;5038549;28;45808;-67
2023/03/23 04:25:20;;;;;;;;;5.67;2.00;;;;;13.34;70.70;100194.19;5057560;28;45297;-66
2023/03/23 04:27:52;;;;;;;;;2.00;1.33;;;;;13.31;70.80;100194.22;5037726;28;45679;-67
2023/03/23 04:30:21;;;;;;;;;5.00;2.00;;;;;13.39;70.40;100196.75;5055465;28;46650;-67
2023/03/23 04:32:50;;;;;;;;;5.00;3.00;;;;;13.34;71.08;100215.25;5055865;28;45809;-67
2023/03/23 04:35:17;;;;;;;;;3.00;3.00;;;;;13.08;70.86;100190.22;5049030;28;45614;-66
2023/03/23 04:37:44;;;;;;;;;5.00;2.00;;;;;13.25;70.73;100215.38;5055172;28;45572;-66
2023/03/23 04:40:12;;;;;;;;;2.00;2.00;;;;;13.35;70.63;100219.59;5037425;28;47304;-67
2023/03/23 04:42:39;;;;;;;;;2.00;1.00;;;;;13.40;70.54;100223.00;5054840;28;45386;-67
2023/03/23 04:45:07;;;;;;;;;1.33;1.33;;;;;13.39;70.11;100221.28;5055514;28;45424;-67
2023/03/23 04:47:39;;;;;;;;;2.33;2.00;;;;;13.25;70.21;100199.59;5055253;28;45516;-66
2023/03/23 04:50:11;;;;;;;;;3.67;2.33;;;;;13.33;70.21;100214.34;5055370;28;45799;-68
2023/03/23 04:52:38;;;;;;;;;2.00;1.00;;;;;13.36;70.36;100221.34;5055030;28;45479;-67
2023/03/23 04:55:09;;;;;;;;;1.67;1.67;;;;;13.45;70.04;100233.44;5036848;28;45482;-67
2023/03/23 04:57:34;;;;;;;;;2.00;2.00;;;;;13.41;70.20;100221.28;5037408;28;45393;-67
2023/03/23 05:00:05;;;;;;;;;1.67;1.67;;;;;13.41;70.18;100224.75;5052828;28;45460;-68
2023/03/23 05:02:31;;;;;;;;;5.33;2.00;;;;;13.24;70.02;100206.63;5055142;28;45732;-65
2023/03/23 05:04:58;;;;;;;;;2.00;2.00;;;;;13.42;70.08;100237.00;5055461;28;45505;-67
2023/03/23 05:07:23;;;;;;;;;3.00;3.00;;;;;13.37;69.94;100228.34;5029346;28;45825;-68
2023/03/23 05:09:49;;;;;;;;;2.33;2.33;;;;;13.27;70.10;100218.84;5038682;28;46264;-67
2023/03/23 05:12:15;;;;;;;;;3.33;2.00;;;;;13.27;70.16;100213.59;5054597;28;45489;-67
2023/03/23 05:14:42;;;;;;;;;2.00;2.00;;;;;13.32;69.81;100219.66;5036937;28;45494;-67
2023/03/23 05:17:08;;;;;;;;;1.00;1.00;;;;;13.45;69.54;100244.84;5056780;28;45336;-66
2023/03/23 05:19:35;;;;;;;;;1.00;1.00;;;;;13.44;69.10;100234.38;5057576;28;46601;-65
2023/03/23 05:22:02;;;;;;;;;2.67;2.00;;;;;13.52;69.03;100242.97;5040844;28;45455;-67
2023/03/23 05:24:31;;;;;;;;;2.00;2.00;;;;;13.44;69.02;100227.34;5059130;28;45409;-67
2023/03/23 05:26:57;;;;;;;;;2.00;2.00;;;;;13.40;69.21;100211.63;5040525;28;45525;-68
2023/03/23 05:29:23;;;;;;;;;1.00;1.00;;;;;13.43;68.54;100228.25;5039321;28;46511;-66
2023/03/23 05:31:49;;;;;;;;;3.00;1.00;;;;;13.34;68.66;100217.88;5054486;28;45438;-67
2023/03/23 05:34:16;;;;;;;;;1.00;1.00;;;;;13.38;69.18;100222.16;5036931;28;45794;-67
2023/03/23 05:36:43;;;;;;;;;2.00;1.33;;;;;13.28;69.49;100216.19;5044767;28;45420;-67
2023/03/23 05:39:10;;;;;;;;;1.00;1.00;;;;;13.39;69.63;100234.44;5053365;28;47220;-69
2023/03/23 05:41:36;;;;;;;;;3.00;1.33;;;;;13.29;69.50;100217.09;5057553;28;45497;-66
2023/03/23 05:44:02;;;;;;;;;1.00;1.00;;;;;13.34;70.42;100245.03;5036364;28;45770;-67
2023/03/23 05:46:28;;;;;;;;;4.00;1.00;;;;;13.27;70.84;100226.72;5040846;28;45295;-68
2023/03/23 05:48:54;;;;;;;;;1.00;1.00;;;;;13.26;70.75;100230.25;5052935;28;47690;-66
2023/03/23 05:51:19;;;;;;;;;2.67;2.33;;;;;13.14;71.44;100211.16;5053380;28;45433;-68
2023/03/23 05:53:47;;;;;;;;;2.00;2.00;;;;;13.27;71.02;100234.63;5052774;28;45561;-67
2023/03/23 05:56:12;;;;;;;;;1.00;1.00;;;;;13.09;71.38;100198.97;5036228;28;45473;-68
2023/03/23 05:58:38;;;;;;;;;1.00;1.00;;;;;13.30;71.13;100231.97;5054772;28;45748;-66
2023/03/23 06:01:08;;;;;;;;;3.00;2.00;;;;;13.32;71.38;100231.03;5058867;28;45441;-68
2023/03/23 06:03:35;;;;;;;;;2.33;2.00;;;;;13.31;71.93;100231.94;5055699;28;45510;-66
2023/03/23 06:06:02;;;;;;;;;3.00;2.00;;;;;13.22;72.52;100220.69;5036224;28;45634;-67
2023/03/23 06:08:28;;;;;;;;;2.00;2.00;;;;;13.19;72.16;100224.22;5053910;28;45573;-70
2023/03/23 06:10:55;;;;;;;;;3.00;1.00;;;;;13.11;72.73;100218.22;5052939;28;45544;-69
2023/03/23 06:13:22;;;;;;;;;1.00;1.00;;;;;13.10;73.25;100227.88;5055499;28;45414;-66
2023/03/23 06:15:49;;;;;;;;;1.00;1.00;;;;;13.06;73.58;100227.97;5053997;28;45415;-68
2023/03/23 06:18:14;;;;;;;;;1.00;1.00;;;;;13.13;73.53;100233.09;5048202;28;46154;-68
2023/03/23 06:20:40;;;;;;;;;1.33;1.33;;;;;13.19;73.69;100245.25;5054878;28;45430;-68
2023/03/23 06:23:06;;;;;;;;;4.00;2.67;;;;;13.20;73.63;100236.47;5054312;28;45512;-66
2023/03/23 06:25:32;;;;;;;;;2.67;2.67;;;;;13.16;73.03;100229.53;5058574;28;45345;-66
2023/03/23 06:27:58;;;;;;;;;2.00;2.00;;;;;13.10;73.30;100221.75;5040262;28;47226;-69
2023/03/23 06:30:25;;;;;;;;;2.67;2.67;;;;;13.20;73.39;100235.63;5058585;28;45501;-67
2023/03/23 06:32:51;;;;;;;;;5.00;3.00;;;;;13.23;73.61;100248.72;5037131;28;45352;-69
2023/03/23 06:35:17;;;;;;;;;2.00;2.00;;;;;13.19;73.08;100233.88;5042790;28;45662;-69
2023/03/23 06:37:43;;;;;;;;;3.00;3.00;;;;;13.15;73.75;100233.94;5050587;28;45464;-69
2023/03/23 06:40:09;;;;;;;;;2.67;1.67;;;;;13.20;73.75;100252.25;5053538;28;45395;-68
2023/03/23 06:42:36;;;;;;;;;4.33;2.00;;;;;13.15;73.97;100247.06;5053739;28;45674;-65
2023/03/23 06:45:02;;;;;;;;;4.00;3.00;;;;;13.18;73.57;100254.03;5054189;28;45503;-68
2023/03/23 06:47:30;;;;;;;;;3.33;2.00;;;;;13.17;73.82;100260.22;5053608;28;46202;-70
2023/03/23 06:49:57;;;;;;;;;3.00;3.00;;;;;13.18;74.43;100266.34;5053009;28;45434;-69
2023/03/23 06:52:23;;;;;;;;;5.00;4.00;;;;;13.16;73.87;100272.47;5053004;28;45438;-69
2023/03/23 06:54:50;;;;;;;;;5.00;3.00;;;;;13.15;74.00;100268.13;5035752;28;45327;-67
2023/03/23 06:57:16;;;;;;;;;3.00;2.67;;;;;13.19;74.12;100278.56;5035159;28;46880;-66
2023/03/23 06:59:42;;;;;;;;;3.00;3.00;;;;;13.13;74.44;100262.00;5035228;28;45529;-68
2023/03/23 07:02:13;;;;;;;;;3.00;3.00;;;;;12.94;74.01;100255.31;5053807;28;45446;-68
2023/03/23 07:04:40;;;;;;;;;4.00;3.33;;;;;13.07;74.02;100284.88;5053316;28;45470;-68
2023/03/23 07:07:07;;;;;;;;;2.67;2.33;;;;;13.08;74.57;100292.75;5034846;28;47130;-67
2023/03/23 07:09:33;;;;;;;;;4.67;3.00;;;;;13.12;74.09;100304.97;5034776;28;45477;-68
2023/03/23 07:11:59;;;;;;;;;3.00;2.33;;;;;13.15;74.50;100301.44;5035298;28;45682;-67
2023/03/23 07:14:24;;;;;;;;;3.00;2.67;;;;;13.11;73.88;100286.59;5053083;28;45607;-67
2023/03/23 07:16:51;;;;;;;;;4.33;2.00;;;;;13.19;73.78;100294.34;5052663;28;45953;-70
2023/03/23 07:19:16;;;;;;;;;3.00;3.00;;;;;13.26;73.11;100296.00;5034369;28;45735;-67
2023/03/23 07:21:42;;;;;;;;;6.33;5.00;;;;;13.25;72.93;100278.50;5053667;28;45356;-69
2023/03/23 07:24:13;;;;;;;;;4.00;2.00;;;;;13.31;72.33;100283.66;5056116;28;45545;-68
2023/03/23 07:26:41;;;;;;;;;3.33;3.33;;;;;13.35;71.77;100299.38;5056447;28;46018;-67
2023/03/23 07:29:08;;;;;;;;;3.00;3.00;;;;;13.38;71.72;100297.59;5056234;28;45431;-69
2023/03/23 07:31:34;;;;;;;;;4.00;3.00;;;;;13.42;71.66;100305.41;5059601;28;45629;-67
2023/03/23 07:34:00;;;;;;;;;6.00;5.00;;;;;13.48;71.33;100297.41;5059965;28;45531;-66
2023/03/23 07:36:27;;;;;;;;;6.00;3.33;;;;;13.47;71.39;100290.41;5029381;28;46881;-68
2023/03/23 07:38:52;;;;;;;;;4.00;4.00;;;;;13.37;71.46;100288.84;5059062;28;45773;-67
2023/03/23 07:41:19;;;;;;;;;3.67;3.67;;;;;13.42;70.76;100294.88;5056613;28;45450;-69
2023/03/23 07:43:45;;;;;;;;;3.00;3.00;;;;;13.50;71.39;100297.38;5038997;28;45497;-68
2023/03/23 07:46:12;;;;;;;;;5.67;5.00;;;;;13.49;70.46;100316.69;5054269;28;46789;-69
2023/03/23 07:48:38;;;;;;;;;3.00;3.00;;;;;13.43;70.43;100315.06;5056733;28;45386;-67
2023/03/23 07:51:05;;;;;;;;;3.67;3.67;;;;;13.38;70.36;100323.88;5059405;28;45281;-64
2023/03/23 07:53:30;;;;;;;;;5.33;4.00;;;;;13.45;69.89;100317.63;5056686;28;45770;-66
2023/03/23 07:55:56;;;;;;;;;5.00;5.00;;;;;13.46;69.92;100330.78;5058776;28;46120;-66
2023/03/23 07:58:22;;;;;;;;;3.33;3.33;;;;;13.36;69.58;100321.31;5042133;28;45818;-66
2023/03/23 08:00:48;;;;;;;;;5.33;4.67;;;;;13.40;69.70;100317.72;5060099;28;45316;-68
2023/03/23 08:03:15;;;;;;;;;3.00;3.00;;;;;13.30;69.17;100295.09;5042572;28;45419;-67
2023/03/23 08:05:42;;;;;;;;;3.33;3.33;;;;;13.51;69.40;100330.69;5059022;28;45501;-67
2023/03/23 08:08:09;;;;;;;;;2.00;2.00;;;;;13.58;69.21;100333.19;5053802;28;45414;-69
2023/03/23 08:10:35;;;;;;;;;5.33;3.67;;;;;13.62;68.96;100314.72;5055637;28;45424;-68
2023/03/23 08:13:02;;;;;;;;;5.33;3.67;;;;;13.62;68.87;100320.88;5059043;28;45824;-69
2023/03/23 08:15:29;;;;;;;;;5.00;4.00;;;;;13.62;68.67;100323.50;5059739;28;46066;-68
2023/03/23 08:17:55;;;;;;;;;3.67;2.67;;;;;13.66;67.80;100316.41;5049613;28;45394;-68
2023/03/23 08:20:25;;;;;;;;;5.33;3.00;;;;;13.51;68.37;100325.44;5036614;28;45343;-68
2023/03/23 08:22:55;;;;;;;;;6.00;2.67;;;;;13.60;67.74;100303.38;5047361;28;45375;-66
2023/03/23 08:25:21;;;;;;;;;3.00;3.00;;;;;13.63;67.86;100313.84;5041750;28;47827;-66
2023/03/23 08:28:25;;;;;;;;;4.00;4.00;;;;;13.66;67.54;100322.53;5057690;28;45421;-67
2023/03/23 08:30:50;;;;;;;;;7.00;3.00;;;;;13.70;67.38;100328.63;5047015;28;45553;-65
2023/03/23 08:33:16;;;;;;;;;3.67;3.00;;;;;13.71;67.23;100331.22;5054951;28;45498;-66
2023/03/23 08:35:43;;;;;;;;;4.00;4.00;;;;;13.80;67.16;100332.81;5040876;28;45367;-66
2023/03/23 08:38:11;;;;;;;;;4.00;4.00;;;;;13.83;66.86;100313.47;5037639;28;45601;-67
2023/03/23 08:40:39;;;;;;;;;3.33;3.33;;;;;13.96;66.01;100329.03;5037731;28;45538;-67
2023/03/23 08:43:05;;;;;;;;;3.33;3.33;;;;;14.03;65.98;100329.78;5055876;28;45411;-66
2023/03/23 08:45:31;;;;;;;;;5.00;2.67;;;;;14.07;65.65;100333.22;5040469;28;45794;-67
2023/03/23 08:47:58;;;;;;;;;2.33;2.33;;;;;14.12;65.31;100331.38;5056154;28;45447;-68
2023/03/23 08:50:26;;;;;;;;;4.00;3.00;;;;;14.14;65.44;100330.47;5055559;28;45421;-66
2023/03/23 08:52:53;;;;;;;;;6.67;3.00;;;;;14.11;65.36;100333.13;5055729;28;45500;-67
2023/03/23 08:55:19;;;;;;;;;5.00;3.00;;;;;14.11;65.61;100335.75;5053945;28;47901;-65
2023/03/23 08:57:45;;;;;;;;;4.00;4.00;;;;;14.21;64.96;100339.09;5036247;28;45415;-66
2023/03/23 09:00:17;;;;;;;;;5.33;4.00;;;;;14.24;64.88;100343.41;5053933;28;45397;-66
2023/03/23 09:02:52;;;;;;;;;4.00;4.00;;;;;14.20;65.07;100332.94;5040168;28;45295;-66
2023/03/23 09:05:21;;;;;;;;;3.00;3.00;;;;;14.27;65.05;100333.72;5056134;28;46470;-68
2023/03/23 09:07:49;;;;;;;;;5.00;3.33;;;;;14.27;64.46;100325.81;5055492;28;45505;-65
2023/03/23 09:10:17;;;;;;;;;5.00;2.67;;;;;14.27;64.53;100338.97;5055423;28;45451;-65
2023/03/23 09:12:44;;;;;;;;;2.00;2.00;;;;;14.26;64.63;100347.78;5037579;28;45770;-67
2023/03/23 09:15:14;;;;;;;;;5.67;4.33;;;;;14.17;64.28;100353.22;5053712;28;45665;-68
2023/03/23 09:17:44;;;;;;;;;3.33;3.33;;;;;14.22;64.45;100346.09;5054809;28;45246;-68
2023/03/23 09:20:11;;;;;;;;;5.67;3.00;;;;;14.55;63.90;100360.41;5055354;28;45446;-67
2023/03/23 09:22:50;;;;;;;;;4.33;3.00;;;;;14.70;63.40;100338.13;5055518;28;45469;-69
2023/03/23 09:25:20;;;;;;;;;4.00;3.00;;;;;14.89;62.82;100335.97;5041037;28;46065;-69
2023/03/23 09:27:49;;;;;;;;;6.00;5.00;;;;;14.97;62.35;100339.31;5036547;28;45670;-68
2023/03/23 09:30:14;;;;;;;;;3.33;2.33;;;;;15.04;61.67;100317.19;5054566;28;45781;-68
2023/03/23 09:32:42;;;;;;;;;5.67;4.00;;;;;15.23;61.92;100335.19;5054617;28;45433;-65
2023/03/23 09:35:09;;;;;;;;;3.00;3.00;;;;;15.30;61.46;100314.81;5045463;28;46401;-69
2023/03/23 09:37:35;;;;;;;;;4.00;2.00;;;;;15.29;60.78;100319.22;5051861;28;45315;-66
2023/03/23 09:40:10;;;;;;;;;5.67;4.00;;;;;15.37;60.67;100325.16;5054631;28;45889;-67
2023/03/23 09:42:54;;;;;;;;;5.00;2.00;;;;;15.20;60.31;100328.22;5040621;28;45573;-67
2023/03/23 09:45:39;;;;;;;;;5.33;3.00;;;;;15.55;60.47;100333.56;5035443;28;46327;-69
2023/03/23 09:48:23;;;;;;;;;4.67;3.33;;;;;15.80;59.58;100339.09;5054326;28;45635;-66
2023/03/23 09:50:55;;;;;;;;;4.00;4.00;;;;;15.86;58.95;100345.09;5054181;28;45509;-65
2023/03/23 09:53:53;;;;;;;;;5.00;3.67;;;;;15.86;58.95;100344.25;5054223;28;45532;-66
2023/03/23 09:56:20;;;;;;;;;4.67;4.00;;;;;15.81;59.53;100362.84;5032559;28;45563;-67
2023/03/23 09:59:08;;;;;;;;;7.00;2.67;;;;;15.78;59.15;100336.53;5058134;28;45446;-67
2023/03/23 10:01:51;;;;;;;;;5.33;2.67;;;;;15.86;59.23;100345.09;5034815;28;45363;-68
2023/03/23 10:04:51;;;;;;;;;5.00;3.33;;;;;16.03;59.01;100338.50;5054362;28;45459;-64
2023/03/23 10:07:25;;;;;;;;;2.00;2.00;;;;;16.41;57.84;100334.78;5016511;28;46347;-69
2023/03/23 10:09:54;;;;;;;;;3.67;2.33;;;;;16.64;56.55;100326.22;5023973;28;45507;-69
2023/03/23 10:12:22;;;;;;;;;6.00;3.67;;;;;16.75;56.19;100332.06;5033663;28;45960;-67
2023/03/23 10:15:10;;;;;;;;;4.67;3.33;;;;;16.83;55.66;100334.50;5033893;28;45616;-66
2023/03/23 10:18:01;;;;;;;;;6.00;3.00;;;;;17.01;55.55;100322.47;5033747;28;46718;-67
2023/03/23 10:20:48;;;;;;;;;6.00;4.00;;;;;17.14;54.84;100333.56;5034411;28;45611;-68
2023/03/23 10:23:42;;;;;;;;;3.00;3.00;;;;;17.47;54.08;100331.59;5035397;28;45398;-67
2023/03/23 10:26:45;;;;;;;;;7.67;3.00;;;;;17.63;53.53;100329.31;5033863;28;45501;-66
2023/03/23 10:29:18;;;;;;;;;3.33;3.00;;;;;17.43;53.08;100289.38;5037181;28;47159;-66
2023/03/23 10:32:15;;;;;;;;;4.00;4.00;;;;;17.62;52.26;100338.16;5036345;28;45358;-68
2023/03/23 10:34:57;;;;;;;;;5.67;3.67;;;;;17.28;52.74;100335.75;5033482;28;45766;-69
2023/03/23 10:37:37;;;;;;;;;2.67;2.00;;;;;16.90;52.88;100274.34;5048688;28;45465;-67
2023/03/23 10:40:10;;;;;;;;;2.33;2.33;;;;;17.21;53.19;100315.69;5055021;28;45822;-68
2023/03/23 10:42:39;;;;;;;;;6.33;3.00;;;;;17.09;52.76;100320.47;5058184;28;45301;-68
2023/03/23 10:45:22;;;;;;;;;4.33;3.00;;;;;17.24;52.80;100339.41;5058568;28;45340;-65
2023/03/23 10:48:05;;;;;;;;;4.33;4.00;;;;;17.31;52.59;100336.50;5035523;28;45402;-66
2023/03/23 10:50:35;;;;;;;;;6.00;4.00;;;;;17.08;52.37;100317.84;5052133;28;47525;-67
2023/03/23 10:53:03;;;;;;;;;9.33;2.00;;;;;17.00;53.05;100311.94;5053287;28;45282;-66
2023/03/23 10:55:40;;;;;;;;;46.50;35.25;;;;;17.11;53.02;100308.06;5056725;28;45493;-66
2023/03/23 10:58:09;;;;;;;;;5.00;4.33;;;;;17.42;52.42;100332.69;5057513;28;45419;-67
2023/03/23 11:00:44;;;;;;;;;6.33;3.00;;;;;17.58;51.82;100310.03;5038116;28;45527;-66
2023/03/23 11:03:16;;;;;;;;;5.00;4.00;;;;;17.74;52.00;100316.53;5034999;28;45411;-67
2023/03/23 11:05:43;;;;;;;;;4.00;3.00;;;;;17.66;52.82;100299.22;5052882;28;45399;-66
2023/03/23 11:08:33;;;;;;;;;5.00;4.00;;;;;17.88;53.94;100323.19;5053555;28;45528;-67
2023/03/23 11:11:18;;;;;;;;;10.67;8.00;;;;;18.19;54.04;100317.66;5056386;28;45420;-67
2023/03/23 11:13:46;;;;;;;;;3.00;3.00;;;;;18.49;51.02;100312.19;5035122;28;45894;-65
2023/03/23 11:16:42;;;;;;;;;6.00;6.00;;;;;18.65;51.07;100326.59;5056593;28;45481;-69
2023/03/23 11:19:21;;;;;;;;;5.67;5.67;;;;;18.83;50.42;100331.22;5039800;28;45483;-67
2023/03/23 11:21:52;;;;;;;;;2.67;2.67;;;;;18.62;49.28;100324.03;5041054;28;46320;-69
2023/03/23 11:24:18;;;;;;;;;5.67;4.67;;;;;18.51;50.69;100321.81;5034489;28;45426;-64
2023/03/23 11:26:45;;;;;;;;;4.00;4.00;;;;;18.38;50.46;100308.13;5044143;28;45664;-66
2023/03/23 11:29:17;;;;;;;;;7.67;4.00;;;;;18.33;50.27;100322.47;5056687;28;45546;-70
2023/03/23 11:31:52;;;;;;;;;6.33;4.33;;;;;18.51;50.29;100331.53;5051116;28;45450;-65
2023/03/23 11:34:21;;;;;;;;;5.33;4.00;;;;;18.49;50.58;100315.69;5037274;28;45781;-66
2023/03/23 11:37:05;;;;;;;;;6.67;4.00;;;;;18.48;49.58;100329.00;5041995;28;45474;-67